Historique des mesures à Cassis (13260), France
Quotidien Résumé Décembre 6, 2017 Unités:  Métrique    US   Métrique/US
« Précédent (Jour)
Suivant (Jour) »
Quotidien Hebdomadaire Mensuel Annuel Période au choix
  Maximum: Minimum: Moyenne:
Température: TemperatureC °C 6.9 °C 8.3 °C
Point de rosée: DewpointC °C 3.0 °C 4.5 °C
Humidité: Humidity % 72 % 73 %
Vitesse du vent: 0 km/h 0 km/h 0.5 km/h
Rafales: 0 km/h - -
Vent:- - SSE
Pression: PressurehPa hPa 1030.7 hPa -
Précipitations: 0.0 mm    
Historical Graphs
 
 
Mesures pour : Décembre 6, 2017
Heure Temperature Point de rosée Pression Vent Vitesse du vent Rafales Humidité Pluie (par heure) Conditions
TemperatureC °C DewpointC °C PressurehPa hPa Calm     Humidity % HourlyPrecipMM mm SoftwareType W/m2
00:11 7.7 °C 3.0 °C 1032.1 hPa Calm     72 % 0.0 mm open2300-1.11 W/m2
01:10 7.9 °C 3.6 °C 1032.1 hPa Calm     74 % 0.0 mm open2300-1.11 W/m2
02:11 7.6 °C 3.4 °C 1031.7 hPa Calm     75 % 0.0 mm open2300-1.11 W/m2
03:10 7.5 °C 3.6 °C 1031.7 hPa Calm     76 % 0.0 mm open2300-1.11 W/m2
04:10 7.8 °C 3.8 °C 1031.7 hPa Calm     76 % 0.0 mm open2300-1.11 W/m2
05:10 7.2 °C 3.2 °C 1031.4 hPa Calm   4.7 km/h 76 % 0.0 mm open2300-1.11 W/m2
06:10 7.1 °C 3.5 °C 1031.4 hPa Calm     78 % 0.0 mm open2300-1.11 W/m2
07:10 7.1 °C 3.7 °C 1031.7 hPa Calm     79 % 0.0 mm open2300-1.11 W/m2
08:11 6.9 °C 3.5 °C 1031.7 hPa Calm     79 % 0.0 mm open2300-1.11 W/m2
09:10 7.5 °C 4.1 °C 1031.7 hPa Calm     79 % 0.0 mm open2300-1.11 W/m2
10:11 9.0 °C 5.3 °C 1032.1 hPa Calm     78 % 0.0 mm open2300-1.11 W/m2
11:10 10.1 °C 6.2 °C 1032.4 hPa SE 3.4 km/h 3.4 km/h 77 % 0.0 mm open2300-1.11 W/m2
12:11 10.8 °C 6.7 °C 1032.1 hPa Calm     76 % 0.0 mm open2300-1.11 W/m2
13:10 11.3 °C 7.1 °C 1031.4 hPa Calm     75 % 0.0 mm open2300-1.11 W/m2
14:11 11.9 °C 7.4 °C 1030.7 hPa Calm   4.2 km/h 74 % 0.0 mm open2300-1.11 W/m2
15:10 11.6 °C 7.1 °C 1030.7 hPa SSE 6.9 km/h 6.9 km/h 74 % 0.0 mm open2300-1.11 W/m2
16:10 11.0 °C 6.6 °C 1030.7 hPa Calm     74 % 0.0 mm open2300-1.11 W/m2
17:10 9.9 °C 5.7 °C 1030.7 hPa Calm     75 % 0.0 mm open2300-1.11 W/m2
18:10 8.8 °C 4.9 °C 1030.7 hPa Calm     77 % 0.0 mm open2300-1.11 W/m2
19:10 7.8 °C 4.2 °C 1030.7 hPa Calm     78 % 0.0 mm open2300-1.11 W/m2
20:10 7.3 °C 3.7 °C 1031.0 hPa Calm     78 % 0.0 mm open2300-1.11 W/m2
22:10 7.4 °C 4.0 °C 1031.0 hPa Calm     79 % 0.0 mm open2300-1.11 W/m2
23:10 7.9 °C 4.3 °C 1030.7 hPa Calm     78 % 0.0 mm open2300-1.11 W/m2
Observations météo à CASSIS
WU-History script by Weather Underground - 1 mb